Airfield :
LOGIN :

Register | Disclaimer

   EN    FR    IT 

 










Legend :    VFR   Marginal VFR   IFR   Intensive IFR   Very Intensive IFR
Visi :
Ceiling :
>= 8 km
>= 3000ft
5 to 8 km
1000 to 3000 ft
1500m to 5 km
500 to 1000 ft
800 to 1500m
200 to 500 ft
< 800m
< 200 ft
Symbols :   Thunderstorms  Fog  Heavy snow  Heavy precipitations  Wind > 20 kt
SIGMETs :     Misc.  Thunderstorms  Icing  Turbulence  Mountain Waves  Volcanic Ashes






- Airport Elevation : 302 ft
- IATA code : CGN


EDDK - Cologne Bonn

CURRENT METAR :
  • 100450Z 20016KT 170V230 9999 -SHRA FEW038 SCT060TCU 20/09 Q1003 BECMG 18010KT

EXPIRED METARs :
  • 100420Z 18013KT 140V210 9999 VCSH FEW060CB 21/09 Q1002 NOSIG
  • 100350Z 17009KT 110V190 CAVOK 19/09 Q1002 NOSIG
  • 100320Z 16009KT CAVOK 20/08 Q1001 NOSIG
  • 100250Z 18005KT CAVOK 20/08 Q1001 NOSIG
  • 100220Z 19009G19KT CAVOK 21/08 Q1001 NOSIG

TAF TAF EDDK
Valid from the 10 at 00:00 until the 11 at 06:00 UTC


092300Z 1000/1106 16008KT 9999 SCT030
BECMG 1008/1010 22013KT
TEMPO 1010/1012 23015G25KT
BECMG 1013/1016 20007KT
BECMG 1018/1022 VRB03KT
PROB40
TEMPO 1022/1103 RA
PROB30
TEMPO 1104/1106 33005KT 4000 -RADZ BKN008



MET'MAP, your aeronautical weather chart ! - Copyright ORBIFLY December 2007 - Disclaimer

ORBIFLY MET'MAP TEAM :

Programming & Development : Alexandra Zaïnal
Concept & original design : Baudouin d'Aumeries
Assistance for programming : Marc-Olivier Méhu
Technical & hardware support : Manuel Goepfert

Contact : metmap@orbifly.com




SOURCES & CREDITS :

   NOAA